Time;durP1;ratioP1;P1;durP2;ratioP2;P2;SDS_P1;SDS_P2;PMS_P1;PMS_P2;Temp;Humidity;BMP_temperature;BMP_pressure;BME280_temperature;BME280_humidity;BME280_pressure;Samples;Min_cycle;Max_cycle;Signal;HPM_P1;HPM_P2
2023/04/25 04:42:17;;;;;;;0.00;0.00;;;;;;;;;;5084153;24;20067;-80
2023/04/25 04:44:44;;;;;;;0.00;0.00;;;;;;;;;;4819016;29;20082;-75
2023/04/25 04:47:10;;;;;;;0.00;0.00;;;;;;;;;;4822434;29;20031;-60
2023/04/25 04:49:36;;;;;;;0.00;0.00;;;;;;;;;;4823176;29;20046;-59
2023/04/25 04:52:02;;;;;;;0.00;0.00;;;;;;;;;;4805889;29;20038;-59
2023/04/25 04:54:28;;;;;;;0.00;0.00;;;;;;;;;;4806749;29;20022;-59
2023/04/25 04:56:55;;;;;;;0.00;0.00;;;;;;;;;;4823195;29;20034;-60
2023/04/25 04:59:21;;;;;;;0.00;0.00;;;;;;;;;;4823034;29;20454;-60
2023/04/25 05:01:47;;;;;;;0.00;0.00;;;;;;;;;;4806444;29;20041;-82
2023/04/25 05:04:13;;;;;;;0.00;0.00;;;;;;;;;;4810053;29;20468;-74
2023/04/25 05:06:40;;;;;;;0.00;0.00;;;;;;;;;;4794090;29;20124;-75
2023/04/25 05:09:06;;;;;;;0.00;0.00;;;;;;;;;;4793891;29;20151;-83
2023/04/25 05:11:32;;;;;;;0.00;0.00;;;;;;;;;;4799279;29;20042;-80
2023/04/25 05:13:58;;;;;;;0.00;0.00;;;;;;;;;;4794184;29;20031;-80
2023/04/25 05:16:24;;;;;;;0.00;0.00;;;;;;;;;;4797940;29;20031;-77
2023/04/25 05:18:50;;;;;;;0.00;0.00;;;;;;;;;;4792679;29;20032;-68
2023/04/25 05:21:16;;;;;;;0.00;0.00;;;;;;;;;;4786852;30;20043;-80
2023/04/25 05:23:42;;;;;;;0.00;0.00;;;;;;;;;;4786394;30;20027;-66
2023/04/25 05:26:13;;;;;;;0.00;0.00;;;;;;;;;;4770166;30;20084;-73
2023/04/25 05:28:40;;;;;;;0.00;0.00;;;;;;;;;;4786260;30;20031;-68
2023/04/25 05:31:06;;;;;;;0.00;0.00;;;;;;;;;;4787947;29;20027;-63
2023/04/25 05:33:32;;;;;;;0.00;0.00;;;;;;;;;;4804377;29;20034;-60
2023/04/25 05:35:58;;;;;;;0.00;0.00;;;;;;;;;;4804461;29;20027;-67
2023/04/25 05:38:25;;;;;;;0.00;0.00;;;;;;;;;;4804573;29;20138;-78
2023/04/25 05:40:51;;;;;;;0.00;0.00;;;;;;;;;;4804325;29;20045;-63
2023/04/25 05:43:17;;;;;;;0.00;0.00;;;;;;;;;;4793746;29;20142;-65
2023/04/25 05:45:42;;;;;;;0.00;0.00;;;;;;;;;;4786472;30;20035;-60
2023/04/25 05:48:09;;;;;;;0.00;0.00;;;;;;;;;;4786616;30;20031;-85
2023/04/25 05:50:35;;;;;;;0.00;0.00;;;;;;;;;;4786068;30;20035;-73
2023/04/25 05:53:01;;;;;;;0.00;0.00;;;;;;;;;;4786630;30;20114;-74
2023/04/25 05:55:27;;;;;;;0.00;0.00;;;;;;;;;;4786265;30;20069;-63
2023/04/25 05:57:53;;;;;;;0.00;0.00;;;;;;;;;;4786305;30;20523;-60
2023/04/25 06:00:22;;;;;;;0.00;0.00;;;;;;;;;;4786308;30;21964;-60
2023/04/25 06:02:48;;;;;;;0.00;0.00;;;;;;;;;;4785644;29;20412;-60
2023/04/25 06:05:14;;;;;;;0.00;0.00;;;;;;;;;;4786272;30;20039;-61
2023/04/25 06:07:40;;;;;;;0.00;0.00;;;;;;;;;;4786647;30;20419;-87
2023/04/25 06:10:06;;;;;;;0.00;0.00;;;;;;;;;;4786222;30;20433;-62
2023/04/25 06:12:33;;;;;;;0.00;0.00;;;;;;;;;;4786069;30;20088;-74
2023/04/25 06:14:59;;;;;;;0.00;0.00;;;;;;;;;;4785916;30;20118;-69
2023/04/25 06:17:25;;;;;;;0.00;0.00;;;;;;;;;;4785503;30;20035;-66
2023/04/25 06:19:51;;;;;;;0.00;0.00;;;;;;;;;;4785942;30;20031;-62
2023/04/25 06:22:17;;;;;;;0.00;0.00;;;;;;;;;;4785723;30;20093;-82
2023/04/25 06:24:43;;;;;;;0.00;0.00;;;;;;;;;;4785827;30;20031;-80
2023/04/25 06:27:09;;;;;;;0.00;0.00;;;;;;;;;;4785949;30;20042;-64
2023/04/25 06:29:35;;;;;;;0.00;0.00;;;;;;;;;;4785517;30;20031;-74
2023/04/25 06:32:01;;;;;;;0.00;0.00;;;;;;;;;;4785492;30;20110;-63
2023/04/25 06:34:27;;;;;;;0.00;0.00;;;;;;;;;;4785682;30;20035;-64
2023/04/25 06:36:53;;;;;;;0.00;0.00;;;;;;;;;;4785562;30;20035;-63
2023/04/25 06:39:20;;;;;;;0.00;0.00;;;;;;;;;;4785263;30;20042;-87
2023/04/25 06:41:46;;;;;;;0.00;0.00;;;;;;;;;;4785413;30;20450;-73
2023/04/25 06:44:12;;;;;;;0.00;0.00;;;;;;;;;;4784960;29;20074;-78
2023/04/25 06:46:38;;;;;;;0.00;0.00;;;;;;;;;;4785107;30;20038;-77
2023/04/25 06:49:05;;;;;;;0.00;0.00;;;;;;;;;;4785039;30;20023;-84
2023/04/25 06:51:31;;;;;;;0.00;0.00;;;;;;;;;;4785468;30;20544;-63
2023/04/25 06:53:57;;;;;;;0.00;0.00;;;;;;;;;;4784928;30;20382;-82
2023/04/25 06:56:23;;;;;;;0.00;0.00;;;;;;;;;;4785289;30;20066;-67
2023/04/25 06:58:50;;;;;;;0.00;0.00;;;;;;;;;;4785139;30;20042;-84
2023/04/25 07:01:16;;;;;;;0.00;0.00;;;;;;;;;;4785147;30;20035;-80
2023/04/25 07:03:42;;;;;;;0.00;0.00;;;;;;;;;;4785425;30;20036;-69
2023/04/25 07:06:08;;;;;;;0.00;0.00;;;;;;;;;;4785204;30;20035;-83
2023/04/25 07:08:34;;;;;;;0.00;0.00;;;;;;;;;;4785734;30;20023;-82
2023/04/25 07:11:00;;;;;;;0.00;0.00;;;;;;;;;;4785496;30;20388;-82
2023/04/25 07:13:26;;;;;;;0.00;0.00;;;;;;;;;;4785382;30;20047;-76
2023/04/25 07:15:52;;;;;;;0.00;0.00;;;;;;;;;;4788601;29;20071;-83
2023/04/25 07:18:18;;;;;;;0.00;0.00;;;;;;;;;;4786814;30;20031;-77
2023/04/25 07:20:44;;;;;;;0.00;0.00;;;;;;;;;;4786770;30;20039;-83
2023/04/25 07:23:10;;;;;;;0.00;0.00;;;;;;;;;;4787744;30;20373;-67
2023/04/25 07:25:36;;;;;;;0.00;0.00;;;;;;;;;;4787636;30;20031;-77
2023/04/25 07:28:02;;;;;;;0.00;0.00;;;;;;;;;;4787783;30;20488;-62
2023/04/25 07:30:28;;;;;;;0.00;0.00;;;;;;;;;;4787769;30;20040;-66
2023/04/25 07:32:55;;;;;;;0.00;0.00;;;;;;;;;;4787779;30;20066;-70
2023/04/25 07:35:21;;;;;;;0.00;0.00;;;;;;;;;;4787644;30;20035;-83
2023/04/25 07:37:47;;;;;;;0.00;0.00;;;;;;;;;;4787522;30;20042;-81
2023/04/25 07:40:16;;;;;;;0.00;0.00;;;;;;;;;;4787478;30;20024;-68
2023/04/25 07:42:42;;;;;;;0.00;0.00;;;;;;;;;;4770711;30;20059;-79
2023/04/25 07:45:09;;;;;;;0.00;0.00;;;;;;;;;;4787582;30;20062;-80
2023/04/25 07:47:35;;;;;;;0.00;0.00;;;;;;;;;;4787377;30;20527;-78
2023/04/25 07:50:01;;;;;;;0.00;0.00;;;;;;;;;;4787283;30;20038;-60
2023/04/25 07:52:27;;;;;;;0.00;0.00;;;;;;;;;;4787461;30;20034;-78
2023/04/25 07:54:53;;;;;;;0.00;0.00;;;;;;;;;;4787266;30;20039;-64
2023/04/25 07:57:20;;;;;;;0.00;0.00;;;;;;;;;;4771463;30;20027;-68
2023/04/25 07:59:46;;;;;;;0.00;0.00;;;;;;;;;;4787564;30;20031;-81
2023/04/25 08:02:12;;;;;;;0.00;0.00;;;;;;;;;;4787272;30;20039;-71
2023/04/25 08:04:38;;;;;;;0.00;0.00;;;;;;;;;;4787162;30;20050;-72
2023/04/25 08:07:04;;;;;;;0.00;0.00;;;;;;;;;;4787301;30;20385;-61
2023/04/25 08:09:34;;;;;;;0.00;0.00;;;;;;;;;;4787258;30;20442;-75
2023/04/25 08:12:00;;;;;;;0.00;0.00;;;;;;;;;;4787534;30;20035;-85
2023/04/25 08:14:27;;;;;;;0.00;0.00;;;;;;;;;;4787219;30;20024;-66
2023/04/25 08:16:53;;;;;;;0.00;0.00;;;;;;;;;;4787098;30;20357;-74
2023/04/25 08:19:19;;;;;;;0.00;0.00;;;;;;;;;;4787208;30;20027;-65
2023/04/25 08:21:45;;;;;;;0.00;0.00;;;;;;;;;;4788114;30;20039;-77
2023/04/25 08:24:11;;;;;;;0.00;0.00;;;;;;;;;;4786842;30;20063;-61
2023/04/25 08:26:38;;;;;;;0.00;0.00;;;;;;;;;;4770006;30;20123;-61
2023/04/25 08:29:05;;;;;;;0.00;0.00;;;;;;;;;;4770018;30;20356;-83
2023/04/25 08:31:31;;;;;;;0.00;0.00;;;;;;;;;;4786661;30;20034;-61
2023/04/25 08:33:57;;;;;;;0.00;0.00;;;;;;;;;;4785894;30;20116;-68
2023/04/25 08:36:23;;;;;;;0.00;0.00;;;;;;;;;;4786930;30;20464;-84
2023/04/25 08:38:50;;;;;;;0.00;0.00;;;;;;;;;;4786679;30;20039;-80
2023/04/25 08:41:16;;;;;;;0.00;0.00;;;;;;;;;;4786441;30;20114;-77
2023/04/25 08:43:46;;;;;;;0.00;0.00;;;;;;;;;;4786314;29;20066;-62
2023/04/25 08:46:13;;;;;;;0.00;0.00;;;;;;;;;;4786703;30;20446;-83
2023/04/25 08:48:41;;;;;;;0.00;0.00;;;;;;;;;;4786672;30;20393;-61
2023/04/25 08:51:08;;;;;;;0.00;0.00;;;;;;;;;;4786840;30;20031;-65
2023/04/25 08:53:34;;;;;;;0.00;0.00;;;;;;;;;;4786627;30;20031;-82
2023/04/25 08:56:01;;;;;;;0.00;0.00;;;;;;;;;;4786852;30;20054;-76
2023/04/25 08:58:28;;;;;;;0.00;0.00;;;;;;;;;;4786356;30;20492;-76
2023/04/25 09:00:54;;;;;;;0.00;0.00;;;;;;;;;;4786661;30;20043;-79
2023/04/25 09:03:20;;;;;;;0.00;0.00;;;;;;;;;;4786628;30;20545;-70
2023/04/25 09:05:46;;;;;;;0.00;0.00;;;;;;;;;;4787002;30;20038;-72
2023/04/25 09:08:13;;;;;;;0.00;0.00;;;;;;;;;;4786793;30;20560;-64
2023/04/25 09:10:39;;;;;;;0.00;0.00;;;;;;;;;;4770080;30;20117;-61
2023/04/25 09:13:08;;;;;;;0.00;0.00;;;;;;;;;;4786754;30;20047;-74
2023/04/25 09:15:47;;;;;;;0.00;0.00;;;;;;;;;;4770299;30;20032;-80
2023/04/25 09:18:12;;;;;;;0.00;0.00;;;;;;;;;;4786063;30;20051;-84
2023/04/25 09:20:42;;;;;;;0.00;0.00;;;;;;;;;;4785864;30;20452;-79
2023/04/25 09:23:08;;;;;;;0.00;0.00;;;;;;;;;;4786299;30;20043;-84
2023/04/25 09:25:39;;;;;;;0.00;0.00;;;;;;;;;;4778041;30;20051;-72
2023/04/25 09:28:06;;;;;;;0.00;0.00;;;;;;;;;;4774044;30;20043;-71
2023/04/25 09:30:33;;;;;;;0.00;0.00;;;;;;;;;;4777003;30;20091;-69
2023/04/25 09:33:06;;;;;;;0.00;0.00;;;;;;;;;;4776680;30;20043;-68
2023/04/25 09:35:36;;;;;;;0.00;0.00;;;;;;;;;;4775786;30;20469;-64
2023/04/25 09:38:02;;;;;;;0.00;0.00;;;;;;;;;;4775355;29;20473;-61
2023/04/25 09:40:30;;;;;;;0.00;0.00;;;;;;;;;;4777775;30;20035;-73
2023/04/25 09:42:57;;;;;;;0.00;0.00;;;;;;;;;;4776287;30;20063;-67
2023/04/25 09:45:23;;;;;;;0.00;0.00;;;;;;;;;;4775559;30;20020;-85
2023/04/25 09:47:50;;;;;;;0.00;0.00;;;;;;;;;;4777168;30;20062;-76
2023/04/25 09:50:18;;;;;;;0.00;0.00;;;;;;;;;;4775841;30;20468;-75
2023/04/25 09:52:44;;;;;;;0.00;0.00;;;;;;;;;;4775636;30;20484;-82
2023/04/25 09:55:10;;;;;;;0.00;0.00;;;;;;;;;;4776625;30;20069;-72
2023/04/25 09:57:40;;;;;;;0.00;0.00;;;;;;;;;;4775777;30;20077;-63
2023/04/25 10:00:10;;;;;;;0.00;0.00;;;;;;;;;;4775059;30;20035;-63
2023/04/25 10:02:38;;;;;;;0.00;0.00;;;;;;;;;;4775503;30;20043;-62
2023/04/25 10:05:06;;;;;;;0.00;0.00;;;;;;;;;;4775037;30;20027;-65
2023/04/25 10:07:34;;;;;;;0.00;0.00;;;;;;;;;;4775279;30;20036;-79
2023/04/25 10:10:02;;;;;;;0.00;0.00;;;;;;;;;;4775514;30;20380;-83
2023/04/25 10:12:29;;;;;;;0.00;0.00;;;;;;;;;;4776206;30;20123;-62
2023/04/25 10:14:55;;;;;;;0.00;0.00;;;;;;;;;;4774018;30;20111;-80
2023/04/25 10:17:21;;;;;;;0.00;0.00;;;;;;;;;;4774558;29;20035;-72
2023/04/25 10:19:51;;;;;;;0.00;0.00;;;;;;;;;;4776808;30;20445;-78
2023/04/25 10:22:36;;;;;;;0.00;0.00;;;;;;;;;;4775630;30;20119;-73
2023/04/25 10:25:05;;;;;;;0.00;0.00;;;;;;;;;;4782034;30;20110;-79
2023/04/25 10:27:31;;;;;;;0.00;0.00;;;;;;;;;;4757158;30;20055;-65
2023/04/25 10:30:16;;;;;;;0.00;0.00;;;;;;;;;;4776543;30;20035;-81
2023/04/25 10:32:42;;;;;;;0.00;0.00;;;;;;;;;;4777268;30;20040;-86
2023/04/25 10:35:19;;;;;;;0.00;0.00;;;;;;;;;;4776111;30;20424;-76
2023/04/25 10:38:07;;;;;;;0.00;0.00;;;;;;;;;;4777454;30;20041;-85
2023/04/25 10:40:33;;;;;;;0.00;0.00;;;;;;;;;;4775086;30;20047;-68
2023/04/25 10:43:38;;;;;;;0.00;0.00;;;;;;;;;;4767323;30;20524;-73
2023/04/25 10:46:16;;;;;;;0.00;0.00;;;;;;;;;;4729768;30;20478;-84
2023/04/25 10:48:47;;;;;;;0.00;0.00;;;;;;;;;;4715440;30;20036;-83
2023/04/25 10:51:23;;;;;;;0.00;0.00;;;;;;;;;;4733359;30;20394;-62
2023/04/25 10:53:55;;;;;;;0.00;0.00;;;;;;;;;;4733570;30;20553;-73
2023/04/25 10:56:22;;;;;;;0.00;0.00;;;;;;;;;;4733584;30;20036;-62
2023/04/25 10:58:48;;;;;;;0.00;0.00;;;;;;;;;;4733287;30;20033;-61
2023/04/25 11:01:15;;;;;;;0.00;0.00;;;;;;;;;;4733330;30;20458;-61
2023/04/25 11:03:42;;;;;;;0.00;0.00;;;;;;;;;;4733174;30;20044;-61
2023/04/25 11:06:15;;;;;;;0.00;0.00;;;;;;;;;;4718821;30;20561;-71
2023/04/25 11:08:48;;;;;;;0.00;0.00;;;;;;;;;;4733133;30;20036;-61
2023/04/25 11:11:15;;;;;;;0.00;0.00;;;;;;;;;;4732980;30;20183;-62
2023/04/25 11:13:41;;;;;;;0.00;0.00;;;;;;;;;;4732767;30;20055;-66
2023/04/25 11:16:10;;;;;;;0.00;0.00;;;;;;;;;;4741400;30;20067;-70
2023/04/25 11:18:38;;;;;;;0.00;0.00;;;;;;;;;;4770724;30;20035;-61
2023/04/25 11:21:04;;;;;;;0.00;0.00;;;;;;;;;;4770623;30;20474;-81
2023/04/25 11:23:30;;;;;;;0.00;0.00;;;;;;;;;;4771230;30;20055;-86
2023/04/25 11:25:57;;;;;;;0.00;0.00;;;;;;;;;;4777009;29;20030;-64
2023/04/25 11:28:23;;;;;;;0.00;0.00;;;;;;;;;;4777296;30;20035;-88
2023/04/25 11:30:50;;;;;;;0.00;0.00;;;;;;;;;;4777513;30;20099;-65
2023/04/25 11:33:16;;;;;;;0.00;0.00;;;;;;;;;;4777129;30;20397;-79
2023/04/25 11:35:43;;;;;;;0.00;0.00;;;;;;;;;;4779631;30;20498;-65
2023/04/25 11:38:09;;;;;;;0.00;0.00;;;;;;;;;;4789004;30;20035;-62
2023/04/25 11:40:36;;;;;;;0.00;0.00;;;;;;;;;;4787788;30;20043;-67
2023/04/25 11:43:02;;;;;;;0.00;0.00;;;;;;;;;;4800570;29;20058;-64
2023/04/25 11:45:30;;;;;;;0.00;0.00;;;;;;;;;;4805997;29;20027;-78
2023/04/25 11:47:56;;;;;;;0.00;0.00;;;;;;;;;;4805400;29;20552;-78
2023/04/25 11:50:22;;;;;;;0.00;0.00;;;;;;;;;;4805505;29;20109;-61
2023/04/25 11:52:49;;;;;;;0.00;0.00;;;;;;;;;;4805633;29;20492;-83
2023/04/25 11:55:15;;;;;;;0.00;0.00;;;;;;;;;;4805720;29;20035;-65
2023/04/25 11:57:41;;;;;;;0.00;0.00;;;;;;;;;;4789073;29;20057;-77
2023/04/25 12:00:10;;;;;;;0.00;0.00;;;;;;;;;;4805740;29;20098;-61
2023/04/25 12:02:37;;;;;;;0.00;0.00;;;;;;;;;;4805125;29;20089;-69
2023/04/25 12:05:03;;;;;;;0.00;0.00;;;;;;;;;;4805260;29;20031;-69
2023/04/25 12:07:32;;;;;;;0.00;0.00;;;;;;;;;;4788767;29;20039;-71
2023/04/25 12:09:58;;;;;;;0.00;0.00;;;;;;;;;;4805403;29;20092;-70
2023/04/25 12:12:28;;;;;;;0.00;0.00;;;;;;;;;;4782879;29;20036;-80
2023/04/25 12:14:55;;;;;;;0.00;0.00;;;;;;;;;;4769493;30;20103;-69
2023/04/25 12:17:21;;;;;;;0.00;0.00;;;;;;;;;;4769492;30;20038;-77
2023/04/25 12:19:47;;;;;;;0.00;0.00;;;;;;;;;;4769344;30;20078;-81
2023/04/25 12:22:21;;;;;;;0.00;0.00;;;;;;;;;;4770325;30;20093;-80
2023/04/25 12:24:47;;;;;;;0.00;0.00;;;;;;;;;;4776100;30;20065;-62
2023/04/25 12:27:18;;;;;;;0.00;0.00;;;;;;;;;;4776895;29;20078;-63
2023/04/25 12:29:54;;;;;;;0.00;0.00;;;;;;;;;;4778004;30;20425;-61
2023/04/25 12:32:20;;;;;;;0.00;0.00;;;;;;;;;;4774183;30;20637;-80
2023/04/25 12:34:46;;;;;;;0.00;0.00;;;;;;;;;;4773981;29;20035;-59
2023/04/25 12:37:13;;;;;;;0.00;0.00;;;;;;;;;;4775942;30;20035;-60
2023/04/25 12:39:39;;;;;;;0.00;0.00;;;;;;;;;;4769414;30;20067;-68
2023/04/25 12:42:07;;;;;;;0.00;0.00;;;;;;;;;;4773345;30;20043;-76
2023/04/25 12:44:33;;;;;;;0.00;0.00;;;;;;;;;;4768867;30;20062;-68
2023/04/25 12:46:59;;;;;;;0.00;0.00;;;;;;;;;;4776328;30;20077;-67
2023/04/25 12:49:26;;;;;;;0.00;0.00;;;;;;;;;;4774744;30;20031;-61
2023/04/25 12:51:52;;;;;;;0.00;0.00;;;;;;;;;;4761169;30;20126;-60
2023/04/25 12:54:18;;;;;;;0.00;0.00;;;;;;;;;;4777578;30;20077;-68
2023/04/25 12:56:44;;;;;;;0.00;0.00;;;;;;;;;;4755732;30;20429;-71
2023/04/25 12:59:10;;;;;;;0.00;0.00;;;;;;;;;;4777146;30;20054;-72
2023/04/25 13:01:37;;;;;;;0.00;0.00;;;;;;;;;;4776522;30;20043;-66
2023/04/25 13:04:03;;;;;;;0.00;0.00;;;;;;;;;;4776237;30;20026;-78
2023/04/25 13:06:32;;;;;;;0.00;0.00;;;;;;;;;;4777726;30;20024;-68
2023/04/25 13:08:58;;;;;;;0.00;0.00;;;;;;;;;;4772879;30;20027;-73
2023/04/25 13:11:24;;;;;;;0.00;0.00;;;;;;;;;;4777074;30;20027;-62
2023/04/25 13:13:50;;;;;;;0.00;0.00;;;;;;;;;;4775373;30;20106;-81
2023/04/25 13:16:16;;;;;;;0.00;0.00;;;;;;;;;;4760813;30;20188;-74
2023/04/25 13:18:42;;;;;;;0.00;0.00;;;;;;;;;;4786612;30;20030;-77
2023/04/25 13:21:11;;;;;;;0.00;0.00;;;;;;;;;;4786340;30;20485;-84
2023/04/25 13:23:37;;;;;;;0.00;0.00;;;;;;;;;;4787400;30;20031;-75
2023/04/25 13:26:03;;;;;;;0.00;0.00;;;;;;;;;;4786747;30;20500;-82
2023/04/25 13:28:29;;;;;;;0.00;0.00;;;;;;;;;;4785576;29;20504;-84
2023/04/25 13:30:55;;;;;;;0.00;0.00;;;;;;;;;;4786253;30;20036;-61
2023/04/25 13:33:21;;;;;;;0.00;0.00;;;;;;;;;;4786126;30;20038;-61
2023/04/25 13:35:56;;;;;;;0.00;0.00;;;;;;;;;;4786345;30;20051;-67
2023/04/25 13:38:22;;;;;;;0.00;0.00;;;;;;;;;;4786482;30;20110;-60
2023/04/25 13:40:48;;;;;;;0.00;0.00;;;;;;;;;;4785948;30;20453;-87
2023/04/25 13:43:14;;;;;;;0.00;0.00;;;;;;;;;;4786050;30;20134;-61
2023/04/25 13:45:40;;;;;;;0.00;0.00;;;;;;;;;;4786789;30;20027;-86
2023/04/25 13:48:06;;;;;;;0.00;0.00;;;;;;;;;;4786279;30;20042;-67
2023/04/25 13:50:33;;;;;;;0.00;0.00;;;;;;;;;;4786122;30;20035;-71
2023/04/25 13:52:59;;;;;;;0.00;0.00;;;;;;;;;;4784844;30;20504;-84
2023/04/25 13:55:25;;;;;;;0.00;0.00;;;;;;;;;;4786095;30;20082;-67
2023/04/25 13:57:51;;;;;;;0.00;0.00;;;;;;;;;;4769917;30;20055;-70
2023/04/25 14:00:17;;;;;;;0.00;0.00;;;;;;;;;;4786105;30;20035;-65
2023/04/25 14:02:43;;;;;;;0.00;0.00;;;;;;;;;;4786174;30;20043;-69
2023/04/25 14:05:09;;;;;;;0.00;0.00;;;;;;;;;;4785981;30;20100;-72
2023/04/25 14:07:36;;;;;;;0.00;0.00;;;;;;;;;;4786391;30;20092;-77
2023/04/25 14:10:02;;;;;;;0.00;0.00;;;;;;;;;;4785848;30;20070;-77
2023/04/25 14:12:28;;;;;;;0.00;0.00;;;;;;;;;;4785830;30;20043;-84
2023/04/25 14:14:54;;;;;;;0.00;0.00;;;;;;;;;;4785786;30;20058;-62
2023/04/25 14:17:20;;;;;;;0.00;0.00;;;;;;;;;;4785942;30;20080;-60
2023/04/25 14:19:47;;;;;;;0.00;0.00;;;;;;;;;;4786072;30;20031;-85
2023/04/25 14:22:14;;;;;;;0.00;0.00;;;;;;;;;;4785642;30;20127;-64
2023/04/25 14:24:40;;;;;;;0.00;0.00;;;;;;;;;;4785105;30;20066;-78
2023/04/25 14:27:06;;;;;;;0.00;0.00;;;;;;;;;;4785912;30;20031;-79
2023/04/25 14:29:32;;;;;;;0.00;0.00;;;;;;;;;;4785807;30;20027;-73
2023/04/25 14:31:59;;;;;;;0.00;0.00;;;;;;;;;;4785835;30;20086;-81
2023/04/25 14:34:25;;;;;;;0.00;0.00;;;;;;;;;;4785314;30;20031;-81
2023/04/25 14:36:52;;;;;;;0.00;0.00;;;;;;;;;;4785659;30;20130;-64
2023/04/25 14:39:18;;;;;;;0.00;0.00;;;;;;;;;;4785265;30;20495;-59
2023/04/25 14:41:45;;;;;;;0.00;0.00;;;;;;;;;;4767242;30;20473;-67
2023/04/25 14:44:11;;;;;;;0.00;0.00;;;;;;;;;;4766779;30;20070;-62
2023/04/25 14:46:37;;;;;;;0.00;0.00;;;;;;;;;;4767806;30;20036;-71
2023/04/25 14:49:03;;;;;;;0.00;0.00;;;;;;;;;;4768071;30;20084;-73
2023/04/25 14:51:30;;;;;;;0.00;0.00;;;;;;;;;;4766270;30;20047;-67
2023/04/25 14:53:56;;;;;;;0.00;0.00;;;;;;;;;;4767481;30;20366;-65
2023/04/25 14:56:23;;;;;;;0.00;0.00;;;;;;;;;;4767643;30;20042;-68
2023/04/25 14:58:49;;;;;;;0.00;0.00;;;;;;;;;;4767572;30;20044;-72
2023/04/25 15:01:15;;;;;;;0.00;0.00;;;;;;;;;;4767304;30;20046;-69
2023/04/25 15:03:41;;;;;;;0.00;0.00;;;;;;;;;;4775769;30;20043;-68
2023/04/25 15:06:07;;;;;;;0.00;0.00;;;;;;;;;;4785256;30;20493;-74
2023/04/25 15:08:33;;;;;;;0.00;0.00;;;;;;;;;;4785454;30;20041;-60
2023/04/25 15:11:00;;;;;;;0.00;0.00;;;;;;;;;;4785133;30;20618;-76
2023/04/25 15:13:26;;;;;;;0.00;0.00;;;;;;;;;;4776261;29;20126;-68
2023/04/25 15:15:53;;;;;;;0.00;0.00;;;;;;;;;;4776157;30;20574;-71
2023/04/25 15:18:24;;;;;;;0.00;0.00;;;;;;;;;;4774756;30;20031;-67
2023/04/25 15:20:53;;;;;;;0.00;0.00;;;;;;;;;;4773793;30;20516;-61
2023/04/25 15:23:20;;;;;;;0.00;0.00;;;;;;;;;;4774202;30;20035;-72
2023/04/25 15:25:47;;;;;;;0.00;0.00;;;;;;;;;;4775090;30;20531;-66
2023/04/25 15:28:16;;;;;;;0.00;0.00;;;;;;;;;;4773670;30;20034;-71
2023/04/25 15:30:43;;;;;;;0.00;0.00;;;;;;;;;;4775235;30;20162;-66
2023/04/25 15:33:09;;;;;;;0.00;0.00;;;;;;;;;;4775676;30;20028;-62
2023/04/25 15:35:35;;;;;;;0.00;0.00;;;;;;;;;;4774187;29;20020;-72
2023/04/25 15:38:01;;;;;;;0.00;0.00;;;;;;;;;;4778211;30;20054;-71
2023/04/25 15:40:27;;;;;;;0.00;0.00;;;;;;;;;;4774387;29;20047;-67
2023/04/25 15:42:53;;;;;;;0.00;0.00;;;;;;;;;;4769603;30;20422;-64
2023/04/25 15:45:21;;;;;;;0.00;0.00;;;;;;;;;;4770249;30;20481;-62
2023/04/25 15:47:47;;;;;;;0.00;0.00;;;;;;;;;;4770069;30;20046;-73
2023/04/25 15:50:14;;;;;;;0.00;0.00;;;;;;;;;;4770307;30;20036;-68
2023/04/25 15:52:40;;;;;;;0.00;0.00;;;;;;;;;;4772403;30;20401;-76
2023/04/25 15:55:07;;;;;;;0.00;0.00;;;;;;;;;;4774310;30;20023;-66
2023/04/25 15:57:34;;;;;;;0.00;0.00;;;;;;;;;;4777314;30;20043;-61
2023/04/25 16:00:10;;;;;;;0.00;0.00;;;;;;;;;;4778640;30;20118;-61
2023/04/25 16:02:37;;;;;;;0.00;0.00;;;;;;;;;;4778656;30;20126;-63
2023/04/25 16:05:03;;;;;;;0.00;0.00;;;;;;;;;;4761236;30;20028;-62
2023/04/25 16:07:29;;;;;;;0.00;0.00;;;;;;;;;;4777140;30;20477;-62
2023/04/25 16:09:55;;;;;;;0.00;0.00;;;;;;;;;;4778712;30;20027;-65
2023/04/25 16:12:21;;;;;;;0.00;0.00;;;;;;;;;;4777029;30;20118;-67
2023/04/25 16:14:47;;;;;;;0.00;0.00;;;;;;;;;;4777493;30;20038;-67
2023/04/25 16:17:13;;;;;;;0.00;0.00;;;;;;;;;;4778779;30;20114;-67
2023/04/25 16:19:40;;;;;;;0.00;0.00;;;;;;;;;;4776829;30;20028;-67
2023/04/25 16:22:07;;;;;;;0.00;0.00;;;;;;;;;;4777103;30;20031;-65
2023/04/25 16:24:33;;;;;;;0.00;0.00;;;;;;;;;;4781307;30;20027;-61
2023/04/25 16:26:59;;;;;;;0.00;0.00;;;;;;;;;;4784794;30;20525;-68
2023/04/25 16:29:25;;;;;;;0.00;0.00;;;;;;;;;;4778217;30;20036;-69
2023/04/25 16:31:51;;;;;;;0.00;0.00;;;;;;;;;;4776044;30;20035;-63
2023/04/25 16:34:17;;;;;;;0.00;0.00;;;;;;;;;;4784264;29;20057;-62
2023/04/25 16:36:43;;;;;;;0.00;0.00;;;;;;;;;;4787200;30;20501;-61
2023/04/25 16:39:10;;;;;;;0.00;0.00;;;;;;;;;;4784056;29;20074;-66
2023/04/25 16:41:37;;;;;;;0.00;0.00;;;;;;;;;;4770411;30;20378;-69
2023/04/25 16:44:06;;;;;;;0.00;0.00;;;;;;;;;;4786938;29;20067;-61
2023/04/25 16:46:32;;;;;;;0.00;0.00;;;;;;;;;;4787027;29;20039;-61
2023/04/25 16:48:58;;;;;;;0.00;0.00;;;;;;;;;;4787039;30;20096;-72
2023/04/25 16:51:25;;;;;;;0.00;0.00;;;;;;;;;;4787085;30;20481;-69
2023/04/25 16:53:51;;;;;;;0.00;0.00;;;;;;;;;;4787163;30;20088;-74
2023/04/25 16:56:17;;;;;;;0.00;0.00;;;;;;;;;;4787105;30;20218;-64
2023/04/25 16:58:43;;;;;;;0.00;0.00;;;;;;;;;;4787091;30;20102;-62
2023/04/25 17:01:10;;;;;;;0.00;0.00;;;;;;;;;;4770446;30;20408;-62
2023/04/25 17:03:36;;;;;;;0.00;0.00;;;;;;;;;;4783735;29;20042;-67
2023/04/25 17:06:02;;;;;;;0.00;0.00;;;;;;;;;;4775265;30;20036;-69
2023/04/25 17:08:28;;;;;;;0.00;0.00;;;;;;;;;;4768573;30;20089;-67
2023/04/25 17:10:55;;;;;;;0.00;0.00;;;;;;;;;;4768856;30;20042;-70
2023/04/25 17:13:21;;;;;;;0.00;0.00;;;;;;;;;;4768436;30;20036;-72
2023/04/25 17:15:47;;;;;;;0.00;0.00;;;;;;;;;;4768536;30;20036;-62
2023/04/25 17:18:13;;;;;;;0.00;0.00;;;;;;;;;;4768329;30;20032;-64
2023/04/25 17:20:39;;;;;;;0.00;0.00;;;;;;;;;;4772893;30;20088;-62
2023/04/25 17:23:05;;;;;;;0.00;0.00;;;;;;;;;;4773989;30;20035;-65
2023/04/25 17:25:31;;;;;;;0.00;0.00;;;;;;;;;;4782940;30;20043;-61
2023/04/25 17:27:57;;;;;;;0.00;0.00;;;;;;;;;;4786204;30;20023;-65
2023/04/25 17:30:23;;;;;;;0.00;0.00;;;;;;;;;;4774020;30;20028;-68
2023/04/25 17:32:50;;;;;;;0.00;0.00;;;;;;;;;;4768483;30;20031;-66
2023/04/25 17:35:16;;;;;;;0.00;0.00;;;;;;;;;;4752063;30;20039;-61
2023/04/25 17:37:44;;;;;;;0.00;0.00;;;;;;;;;;4767543;30;20028;-63
2023/04/25 17:40:13;;;;;;;0.00;0.00;;;;;;;;;;4768303;30;20055;-61
2023/04/25 17:42:40;;;;;;;0.00;0.00;;;;;;;;;;4767998;29;20519;-65
2023/04/25 17:45:06;;;;;;;0.00;0.00;;;;;;;;;;4768315;30;20051;-66
2023/04/25 17:47:32;;;;;;;0.00;0.00;;;;;;;;;;4768065;30;20085;-67
2023/04/25 17:49:58;;;;;;;0.00;0.00;;;;;;;;;;4775707;29;20548;-68
2023/04/25 17:52:25;;;;;;;0.00;0.00;;;;;;;;;;4803763;29;20046;-69
2023/04/25 17:54:51;;;;;;;0.00;0.00;;;;;;;;;;4803512;29;20031;-71
2023/04/25 17:57:17;;;;;;;0.00;0.00;;;;;;;;;;4804175;29;20041;-69
2023/04/25 17:59:43;;;;;;;0.00;0.00;;;;;;;;;;4803157;29;20037;-70
2023/04/25 18:02:09;;;;;;;0.00;0.00;;;;;;;;;;4787572;29;20070;-68
2023/04/25 18:04:36;;;;;;;0.00;0.00;;;;;;;;;;4803890;29;20109;-70
2023/04/25 18:07:02;;;;;;;0.00;0.00;;;;;;;;;;4803782;29;20034;-65
2023/04/25 18:09:30;;;;;;;0.00;0.00;;;;;;;;;;4803649;29;20031;-70
2023/04/25 18:11:57;;;;;;;0.00;0.00;;;;;;;;;;4803848;29;20115;-71
2023/04/25 18:14:23;;;;;;;0.00;0.00;;;;;;;;;;4785682;29;20030;-64
2023/04/25 18:16:52;;;;;;;0.00;0.00;;;;;;;;;;4803201;29;20027;-70
2023/04/25 18:19:22;;;;;;;0.00;0.00;;;;;;;;;;4783680;29;20472;-70
2023/04/25 18:21:48;;;;;;;0.00;0.00;;;;;;;;;;4784781;30;20044;-61
2023/04/25 18:24:18;;;;;;;0.00;0.00;;;;;;;;;;4768897;30;20489;-70
2023/04/25 18:26:44;;;;;;;0.00;0.00;;;;;;;;;;4785170;30;20084;-62
2023/04/25 18:29:11;;;;;;;0.00;0.00;;;;;;;;;;4785025;30;20102;-64
2023/04/25 18:31:38;;;;;;;0.00;0.00;;;;;;;;;;4768965;30;20126;-63
2023/04/25 18:34:04;;;;;;;0.00;0.00;;;;;;;;;;4785004;30;20058;-72
2023/04/25 18:36:30;;;;;;;0.00;0.00;;;;;;;;;;4768570;30;20481;-67
2023/04/25 18:38:56;;;;;;;0.00;0.00;;;;;;;;;;4784676;30;20042;-67
2023/04/25 18:41:23;;;;;;;0.00;0.00;;;;;;;;;;4784616;30;20050;-71
2023/04/25 18:43:50;;;;;;;0.00;0.00;;;;;;;;;;4774116;29;20090;-69
2023/04/25 18:46:16;;;;;;;0.00;0.00;;;;;;;;;;4775688;30;20027;-71
2023/04/25 18:48:42;;;;;;;0.00;0.00;;;;;;;;;;4769372;30;20478;-70
2023/04/25 18:51:09;;;;;;;0.00;0.00;;;;;;;;;;4773687;29;20111;-71
2023/04/25 18:53:36;;;;;;;0.00;0.00;;;;;;;;;;4773384;30;20528;-67
2023/04/25 18:56:02;;;;;;;0.00;0.00;;;;;;;;;;4784108;30;20401;-68
2023/04/25 18:58:28;;;;;;;0.00;0.00;;;;;;;;;;4785108;30;20035;-68
2023/04/25 19:00:54;;;;;;;0.00;0.00;;;;;;;;;;4784915;30;20028;-72
2023/04/25 19:03:21;;;;;;;0.00;0.00;;;;;;;;;;4781939;30;20117;-62
2023/04/25 19:05:47;;;;;;;0.00;0.00;;;;;;;;;;4781868;30;20044;-71
2023/04/25 19:08:13;;;;;;;0.00;0.00;;;;;;;;;;4784498;30;20170;-63
2023/04/25 19:10:39;;;;;;;0.00;0.00;;;;;;;;;;4785940;29;20023;-70
2023/04/25 19:13:06;;;;;;;0.00;0.00;;;;;;;;;;4772151;30;20472;-70
2023/04/25 19:15:32;;;;;;;0.00;0.00;;;;;;;;;;4788224;30;20031;-70
2023/04/25 19:17:58;;;;;;;0.00;0.00;;;;;;;;;;4780275;30;20131;-70
2023/04/25 19:20:24;;;;;;;0.00;0.00;;;;;;;;;;4770513;30;20032;-70
2023/04/25 19:22:51;;;;;;;0.00;0.00;;;;;;;;;;4770381;30;20048;-63